Terminal Aerodrome Forecast
Issued by NWS

Home | Current Version | Previous Version | Text Only | Print | Product List | Glossary On
Versions: 1 2 3 4 5 6 7 8 9 10 11 12 13 14 15 16 17 18 19 20 21 22 23 24 25
000
FTUS43 KDVN 240520
TAFBRL
TAF
KBRL 240520Z 2406/2506 13007KT P6SM BKN060
     FM240730 13008KT P6SM -SHRA BKN040
     FM241200 14009KT P6SM VCSH BKN035
     FM241900 17015G22KT P6SM VCTS BKN030CB
      TEMPO 2420/2424 3SM TSRA BR OVC020CB
     FM250100 16010KT 6SM BR OVC015=

USA.gov is the U.S. government's official web portal to all federal, state and local government web resources and services.